createdAt,value
2019-05-06T00:00:01.214Z,6.27
2019-05-06T00:02:29.629Z,6.19
2019-05-06T00:04:58.194Z,6.32
2019-05-06T00:07:26.594Z,6.33
2019-05-06T00:09:55.154Z,6.36
2019-05-06T00:12:23.980Z,6.46
2019-05-06T00:14:54.212Z,6.44
2019-05-06T00:17:23.929Z,6.47
2019-05-06T00:19:53.951Z,6.59
2019-05-06T00:22:23.761Z,6.77
2019-05-06T00:24:54.707Z,6.95
2019-05-06T00:27:25.141Z,6.75
2019-05-06T00:29:54.968Z,6.78
2019-05-06T00:32:24.320Z,6.89
2019-05-06T00:34:54.665Z,6.82
2019-05-06T00:37:24.112Z,6.99
2019-05-06T00:39:57.033Z,7.04
2019-05-06T00:42:34.677Z,7.10
2019-05-06T00:45:04.426Z,6.93
2019-05-06T00:47:34.052Z,7.12
2019-05-06T00:50:04.224Z,7.12
2019-05-06T00:52:33.989Z,7.24
2019-05-06T00:55:04.086Z,7.18
2019-05-06T00:57:45.044Z,7.28
2019-05-06T01:00:15.249Z,7.22
2019-05-06T01:02:43.977Z,7.36
2019-05-06T01:05:14.011Z,7.42
2019-05-06T01:07:43.969Z,7.48
2019-05-06T01:10:14.581Z,7.48
2019-05-06T01:12:44.681Z,7.39
2019-05-06T01:15:15.403Z,7.39
2019-05-06T01:17:44.352Z,7.32
2019-05-06T01:20:13.987Z,7.34
2019-05-06T01:22:43.647Z,7.47
2019-05-06T01:25:14.246Z,7.23
2019-05-06T01:27:44.406Z,7.23
2019-05-06T01:30:13.820Z,7.14
2019-05-06T01:32:43.559Z,7.27
2019-05-06T01:35:14.061Z,7.27
2019-05-06T01:37:44.322Z,7.25
2019-05-06T01:40:27.365Z,7.04
2019-05-06T01:43:00.482Z,7.03
2019-05-06T01:45:28.971Z,7.03
2019-05-06T01:47:57.429Z,7.05
2019-05-06T01:50:25.967Z,6.93
2019-05-06T01:52:54.422Z,6.67
2019-05-06T01:55:23.946Z,6.60
2019-05-06T01:57:54.459Z,6.43
2019-05-06T02:00:23.694Z,6.41
2019-05-06T02:02:54.585Z,6.36
2019-05-06T02:05:24.241Z,6.25
2019-05-06T02:07:54.908Z,6.15
2019-05-06T02:10:23.882Z,6.08
2019-05-06T02:12:54.114Z,6.08
2019-05-06T02:15:23.893Z,5.95
2019-05-06T02:17:54.993Z,6.07
2019-05-06T02:20:24.621Z,5.92
2019-05-06T02:22:57.346Z,5.75
2019-05-06T02:25:27.474Z,5.70
2019-05-06T02:27:55.925Z,5.60
2019-05-06T02:30:36.507Z,5.67
2019-05-06T02:33:24.778Z,5.42
2019-05-06T02:35:57.948Z,5.42
2019-05-06T02:38:35.691Z,5.38
2019-05-06T02:40:58.223Z,5.35
2019-05-06T02:43:26.723Z,5.33
2019-05-06T02:45:55.174Z,5.16
2019-05-06T02:48:25.311Z,5.13
2019-05-06T02:50:55.389Z,5.08
2019-05-06T02:53:25.624Z,4.92
2019-05-06T02:55:54.299Z,4.89
2019-05-06T02:58:23.675Z,4.91
2019-05-06T03:00:53.920Z,4.77
2019-05-06T03:03:23.375Z,4.77
2019-05-06T03:05:53.319Z,4.71
2019-05-06T03:08:23.733Z,4.55
2019-05-06T03:10:53.453Z,4.67
2019-05-06T03:13:23.565Z,4.55
2019-05-06T03:15:54.031Z,4.41
2019-05-06T03:18:23.540Z,4.62
2019-05-06T03:20:54.198Z,4.57
2019-05-06T03:23:24.360Z,4.44
2019-05-06T03:25:53.449Z,4.33
2019-05-06T03:28:22.683Z,4.28
2019-05-06T03:30:55.860Z,4.15
2019-05-06T03:33:44.734Z,4.16
2019-05-06T03:36:06.588Z,4.14
2019-05-06T03:38:22.922Z,4.15
2019-05-06T03:40:53.742Z,4.11
2019-05-06T03:43:23.292Z,4.03
2019-05-06T03:46:08.776Z,4.02
2019-05-06T03:48:44.214Z,4.04
2019-05-06T03:51:13.554Z,4.00
2019-05-06T03:53:43.322Z,4.00
2019-05-06T03:56:16.885Z,4.01
2019-05-06T03:58:43.581Z,3.87
2019-05-06T04:01:13.357Z,3.90
2019-05-06T04:03:47.819Z,3.90
2019-05-06T04:06:13.802Z,3.86
2019-05-06T04:08:44.131Z,3.92
2019-05-06T04:11:14.127Z,4.01
2019-05-06T04:13:43.786Z,3.96
2019-05-06T04:16:22.822Z,4.09
2019-05-06T04:19:04.280Z,4.06
2019-05-06T04:21:34.859Z,3.96
2019-05-06T04:24:04.989Z,4.06
2019-05-06T04:26:38.587Z,4.19
2019-05-06T04:29:09.562Z,4.32
2019-05-06T04:31:38.144Z,4.48
2019-05-06T04:34:13.868Z,4.63
2019-05-06T04:36:36.794Z,4.97
2019-05-06T04:39:06.434Z,5.01
2019-05-06T04:41:35.083Z,4.92
2019-05-06T04:44:04.290Z,5.07
2019-05-06T04:46:34.780Z,4.96
2019-05-06T04:49:04.162Z,5.25
2019-05-06T04:51:37.045Z,5.10
2019-05-06T04:54:04.594Z,5.23
2019-05-06T04:56:34.564Z,5.30
2019-05-06T04:59:06.394Z,5.52
2019-05-06T05:01:34.243Z,5.46
2019-05-06T05:04:03.711Z,5.58
2019-05-06T05:06:32.962Z,5.78
2019-05-06T05:09:02.828Z,5.73
2019-05-06T05:11:36.039Z,5.83
2019-05-06T05:14:13.408Z,5.80
2019-05-06T05:17:02.195Z,5.91
2019-05-06T05:19:32.778Z,5.98
2019-05-06T05:22:07.716Z,6.03
2019-05-06T05:24:37.601Z,6.12
2019-05-06T05:27:07.000Z,6.29
2019-05-06T05:29:35.618Z,6.11
2019-05-06T05:32:04.076Z,6.29
2019-05-06T05:34:40.279Z,6.53
2019-05-06T05:37:03.135Z,6.43
2019-05-06T05:39:33.276Z,6.53
2019-05-06T05:42:03.562Z,6.40
2019-05-06T05:47:26.875Z,6.72
2019-05-06T05:50:03.308Z,6.67
2019-05-06T05:52:32.864Z,6.89
2019-05-06T05:55:02.834Z,6.94
2019-05-06T05:57:32.199Z,7.00
2019-05-06T06:00:00.814Z,6.96
2019-05-06T06:02:29.467Z,6.94
2019-05-06T06:04:58.019Z,7.17
2019-05-06T06:07:26.531Z,7.18
2019-05-06T06:09:59.384Z,7.31
2019-05-06T06:12:27.951Z,7.41
2019-05-06T06:15:02.242Z,7.45
2019-05-06T06:17:32.667Z,7.58
2019-05-06T06:20:02.802Z,7.35
2019-05-06T06:22:33.069Z,7.42
2019-05-06T06:25:04.142Z,7.52
2019-05-06T06:27:33.530Z,7.60
2019-05-06T06:30:02.547Z,7.87
2019-05-06T06:32:32.534Z,8.11
2019-05-06T06:35:10.554Z,7.97
2019-05-06T06:37:52.203Z,8.21
2019-05-06T06:40:22.355Z,8.26
2019-05-06T06:42:52.614Z,8.37
2019-05-06T06:45:23.067Z,8.32
2019-05-06T06:47:51.931Z,8.25
2019-05-06T06:50:22.086Z,8.40
2019-05-06T06:52:52.506Z,8.58
2019-05-06T06:55:22.554Z,8.86
2019-05-06T06:57:53.624Z,8.87
2019-05-06T07:00:23.899Z,9.05
2019-05-06T07:03:02.718Z,8.60
2019-05-06T07:05:36.034Z,9.11
2019-05-06T07:08:04.799Z,8.63
2019-05-06T07:10:34.891Z,8.40
2019-05-06T07:13:03.422Z,8.74
2019-05-06T07:15:33.708Z,9.36
2019-05-06T07:18:02.519Z,8.93
2019-05-06T07:20:32.832Z,9.34
2019-05-06T07:23:03.012Z,9.08
2019-05-06T07:25:33.640Z,9.54
2019-05-06T07:28:02.978Z,9.71
2019-05-06T07:30:33.709Z,9.42
2019-05-06T07:33:03.614Z,9.09
2019-05-06T07:35:40.499Z,9.39
2019-05-06T07:38:02.637Z,9.53
2019-05-06T07:40:32.636Z,9.81
2019-05-06T07:43:02.892Z,9.70
2019-05-06T07:45:33.043Z,9.65
2019-05-06T07:48:03.713Z,10.40
2019-05-06T07:50:34.935Z,10.19
2019-05-06T07:53:06.642Z,10.02
2019-05-06T07:55:35.974Z,10.26
2019-05-06T07:58:05.247Z,10.77
2019-05-06T08:00:34.026Z,9.76
2019-05-06T08:03:02.780Z,9.80
2019-05-06T08:05:32.381Z,9.74
2019-05-06T08:08:03.430Z,10.20
2019-05-06T08:10:33.234Z,10.26
2019-05-06T08:13:02.712Z,10.54
2019-05-06T08:15:32.631Z,10.90
2019-05-06T08:18:03.480Z,10.79
2019-05-06T08:20:38.042Z,10.32
2019-05-06T08:23:26.715Z,10.91
2019-05-06T08:26:09.191Z,10.61
2019-05-06T08:28:37.452Z,10.71
2019-05-06T08:30:55.575Z,10.83
2019-05-06T08:33:24.032Z,10.52
2019-05-06T08:35:53.324Z,10.83
2019-05-06T08:38:22.754Z,11.04
2019-05-06T08:40:52.576Z,11.11
2019-05-06T08:43:21.990Z,11.46
2019-05-06T08:45:52.861Z,10.96
2019-05-06T08:48:22.064Z,11.09
2019-05-06T08:51:02.776Z,11.28
2019-05-06T08:53:33.148Z,11.34
2019-05-06T08:56:03.166Z,11.35
2019-05-06T08:58:47.656Z,11.10
2019-05-06T09:01:19.215Z,11.37
2019-05-06T09:03:47.764Z,10.91
2019-05-06T09:06:27.002Z,11.55
2019-05-06T09:08:47.140Z,11.11
2019-05-06T09:11:15.636Z,11.46
2019-05-06T09:13:44.122Z,11.50
2019-05-06T09:16:13.081Z,11.23
2019-05-06T09:18:42.505Z,11.36
2019-05-06T09:21:12.254Z,10.80
2019-05-06T09:23:42.449Z,10.61
2019-05-06T09:26:13.084Z,10.84
2019-05-06T09:28:46.134Z,11.32
2019-05-06T09:31:19.012Z,11.02
2019-05-06T09:33:54.836Z,11.05
2019-05-06T09:36:23.433Z,10.79
2019-05-06T09:38:53.022Z,11.35
2019-05-06T09:41:23.064Z,11.82
2019-05-06T09:43:52.794Z,11.33
2019-05-06T09:46:23.055Z,11.06
2019-05-06T09:49:09.466Z,10.89
2019-05-06T09:51:37.967Z,11.26
2019-05-06T09:54:13.820Z,11.30
2019-05-06T09:56:44.087Z,11.51
2019-05-06T09:59:12.965Z,11.27
2019-05-06T10:01:43.718Z,11.34
2019-05-06T10:04:13.108Z,11.16
2019-05-06T10:06:55.840Z,11.22
2019-05-06T10:09:16.026Z,12.15
2019-05-06T10:11:42.908Z,12.48
2019-05-06T10:14:12.867Z,12.79
2019-05-06T10:16:43.102Z,12.58
2019-05-06T10:19:13.199Z,12.20
2019-05-06T10:21:42.795Z,12.71
2019-05-06T10:24:11.459Z,12.03
2019-05-06T10:26:44.233Z,11.78
2019-05-06T10:29:22.288Z,12.36
2019-05-06T10:31:52.464Z,11.92
2019-05-06T10:34:22.233Z,11.62
2019-05-06T10:37:12.602Z,13.06
2019-05-06T10:39:34.832Z,13.95
2019-05-06T10:42:13.150Z,15.00
2019-05-06T10:44:53.229Z,15.30
2019-05-06T10:47:22.634Z,14.32
2019-05-06T10:49:52.933Z,15.23
2019-05-06T10:52:26.314Z,13.68
2019-05-06T10:54:54.907Z,12.70
2019-05-06T10:57:25.050Z,12.92
2019-05-06T10:59:53.593Z,13.37
2019-05-06T11:02:35.784Z,15.07
2019-05-06T11:05:05.919Z,16.09
2019-05-06T11:07:35.409Z,16.33
2019-05-06T11:10:05.543Z,17.25
2019-05-06T11:12:34.028Z,17.04
2019-05-06T11:15:03.420Z,18.41
2019-05-06T11:17:32.649Z,15.08
2019-05-06T11:20:03.434Z,14.77
2019-05-06T11:22:32.664Z,14.88
2019-05-06T11:25:03.179Z,14.50
2019-05-06T11:27:33.247Z,14.65
2019-05-06T11:30:03.290Z,15.36
2019-05-06T11:32:36.380Z,14.87
2019-05-06T11:35:13.787Z,14.12
2019-05-06T11:37:50.143Z,15.66
2019-05-06T11:40:16.998Z,16.56
2019-05-06T11:42:45.340Z,16.37
2019-05-06T11:45:14.032Z,16.86
2019-05-06T11:47:42.568Z,17.63
2019-05-06T11:50:12.965Z,18.16
2019-05-06T11:52:43.442Z,18.14
2019-05-06T11:55:12.635Z,19.71
2019-05-06T11:57:44.704Z,19.13
2019-05-06T12:00:15.774Z,19.63
2019-05-06T12:02:48.371Z,18.54
2019-05-06T12:05:15.637Z,16.41
2019-05-06T12:08:00.530Z,16.19
2019-05-06T12:10:14.356Z,15.02
2019-05-06T12:12:42.947Z,14.78
2019-05-06T12:15:12.612Z,14.74
2019-05-06T12:17:42.123Z,14.35
2019-05-06T12:20:13.101Z,14.17
2019-05-06T12:22:42.379Z,14.39
2019-05-06T12:25:14.684Z,15.05
2019-05-06T12:27:46.791Z,15.25
2019-05-06T12:30:23.077Z,14.96
2019-05-06T12:32:56.296Z,14.79
2019-05-06T12:35:24.828Z,15.57
2019-05-06T12:37:55.023Z,15.97
2019-05-06T12:40:23.530Z,15.74
2019-05-06T12:42:54.685Z,15.13
2019-05-06T12:45:24.942Z,15.03
2019-05-06T12:47:55.110Z,15.02
2019-05-06T12:50:23.579Z,14.66
2019-05-06T12:52:52.765Z,14.15
2019-05-06T12:55:25.308Z,14.20
2019-05-06T12:57:53.451Z,13.96
2019-05-06T13:00:23.716Z,13.65
2019-05-06T13:02:53.089Z,13.85
2019-05-06T13:05:21.856Z,13.67
2019-05-06T13:07:52.565Z,13.91
2019-05-06T13:10:23.074Z,13.61
2019-05-06T13:12:56.260Z,13.30
2019-05-06T13:15:24.869Z,13.36
2019-05-06T13:17:53.668Z,13.87
2019-05-06T13:20:23.029Z,14.60
2019-05-06T13:22:59.365Z,14.66
2019-05-06T13:25:27.861Z,14.67
2019-05-06T13:27:56.323Z,14.46
2019-05-06T13:30:25.124Z,18.74
2019-05-06T13:33:13.623Z,21.78
2019-05-06T13:35:41.929Z,21.21
2019-05-06T13:38:10.465Z,17.93
2019-05-06T13:40:53.785Z,19.27
2019-05-06T13:43:13.339Z,20.09
2019-05-06T13:45:43.872Z,19.07
2019-05-06T13:48:16.978Z,23.43
2019-05-06T13:50:47.171Z,22.10
2019-05-06T13:53:15.642Z,22.23
2019-05-06T13:55:44.171Z,17.70
2019-05-06T13:58:12.656Z,15.97
2019-05-06T14:00:42.581Z,15.62
2019-05-06T14:03:11.237Z,15.35
2019-05-06T14:05:39.784Z,15.12
2019-05-06T14:08:08.332Z,14.51
2019-05-06T14:10:36.806Z,14.44
2019-05-06T14:13:05.372Z,17.68
2019-05-06T14:15:33.827Z,21.00
2019-05-06T14:18:02.839Z,22.95
2019-05-06T14:20:33.403Z,23.80
2019-05-06T14:23:02.317Z,17.56
2019-05-06T14:25:38.353Z,16.51
2019-05-06T14:28:13.924Z,20.58
2019-05-06T14:30:44.074Z,22.07
2019-05-06T14:33:15.483Z,19.23
2019-05-06T14:35:44.365Z,16.27
2019-05-06T14:38:13.493Z,16.43
2019-05-06T14:41:07.106Z,20.79
2019-05-06T14:43:32.521Z,20.95
2019-05-06T14:46:01.356Z,18.60
2019-05-06T14:48:30.155Z,15.97
2019-05-06T14:50:58.622Z,15.23
2019-05-06T14:53:27.183Z,14.36
2019-05-06T14:55:57.278Z,14.11
2019-05-06T14:58:25.799Z,13.97
2019-05-06T15:00:54.245Z,13.51
2019-05-06T15:03:22.764Z,13.85
2019-05-06T15:05:51.208Z,13.70
2019-05-06T15:08:22.332Z,13.66
2019-05-06T15:10:49.889Z,13.17
2019-05-06T15:13:18.405Z,13.13
2019-05-06T15:15:46.916Z,13.14
2019-05-06T15:18:15.476Z,13.04
2019-05-06T15:20:43.934Z,12.72
2019-05-06T15:23:13.151Z,12.94
2019-05-06T15:25:41.670Z,12.60
2019-05-06T15:28:10.185Z,12.41
2019-05-06T15:30:56.429Z,12.25
2019-05-06T15:33:29.486Z,12.38
2019-05-06T15:36:05.639Z,12.37
2019-05-06T15:38:34.159Z,12.35
2019-05-06T15:41:03.025Z,12.20
2019-05-06T15:43:33.366Z,12.22
2019-05-06T15:46:03.352Z,12.03
2019-05-06T15:48:32.733Z,11.81
2019-05-06T15:51:03.208Z,11.88
2019-05-06T15:53:32.859Z,11.73
2019-05-06T15:56:01.823Z,11.57
2019-05-06T15:58:32.434Z,11.48
2019-05-06T16:01:02.929Z,11.39
2019-05-06T16:03:33.378Z,11.24
2019-05-06T16:06:02.041Z,11.16
2019-05-06T16:08:32.112Z,11.20
2019-05-06T16:11:02.888Z,11.09
2019-05-06T16:13:31.145Z,11.22
2019-05-06T16:15:59.659Z,11.30
2019-05-06T16:18:28.190Z,11.17
2019-05-06T16:20:57.541Z,11.02
2019-05-06T16:23:32.740Z,11.10
2019-05-06T16:26:02.946Z,11.20
2019-05-06T16:28:31.092Z,11.07
2019-05-06T16:30:59.623Z,11.09
2019-05-06T16:33:32.442Z,11.01
2019-05-06T16:36:00.550Z,10.85
2019-05-06T16:38:28.990Z,10.88
2019-05-06T16:41:09.450Z,10.84
2019-05-06T16:43:27.706Z,10.97
2019-05-06T16:45:56.351Z,10.84
2019-05-06T16:48:24.878Z,10.91
2019-05-06T16:50:53.381Z,10.77
2019-05-06T16:53:22.970Z,10.55
2019-05-06T16:56:05.803Z,10.68
2019-05-06T16:58:36.013Z,10.45
2019-05-06T17:01:05.099Z,10.38
2019-05-06T17:03:52.564Z,10.32
2019-05-06T17:06:25.512Z,9.96
2019-05-06T17:08:54.011Z,9.98
2019-05-06T17:11:27.968Z,9.86
2019-05-06T17:13:52.901Z,9.84
2019-05-06T17:16:22.100Z,9.93
2019-05-06T17:18:55.710Z,9.88
2019-05-06T17:21:22.237Z,9.86
2019-05-06T17:23:52.197Z,9.97
2019-05-06T17:26:22.448Z,9.97
2019-05-06T17:29:02.701Z,10.14
2019-05-06T17:31:42.492Z,10.13
2019-05-06T17:34:12.910Z,10.26
2019-05-06T17:36:42.162Z,10.14
2019-05-06T17:39:11.320Z,10.17
2019-05-06T17:41:46.067Z,10.12
2019-05-06T17:44:12.066Z,10.39
2019-05-06T17:46:42.734Z,10.26
2019-05-06T17:49:13.102Z,10.20
2019-05-06T17:51:59.313Z,10.02
2019-05-06T17:54:27.904Z,9.90
2019-05-06T17:56:56.486Z,9.95
2019-05-06T17:59:25.017Z,9.94
2019-05-06T18:02:00.647Z,9.86
2019-05-06T18:04:29.142Z,9.88
2019-05-06T18:06:58.798Z,9.83
2019-05-06T18:09:27.321Z,9.73
2019-05-06T18:11:59.264Z,9.72
2019-05-06T18:14:26.500Z,9.72
2019-05-06T18:16:55.022Z,9.78
2019-05-06T18:19:23.494Z,9.63
2019-05-06T18:21:52.788Z,9.45
2019-05-06T18:24:23.075Z,9.32
2019-05-06T18:26:52.852Z,9.43
2019-05-06T18:29:22.249Z,9.31
2019-05-06T18:31:52.515Z,9.28
2019-05-06T18:34:23.226Z,9.09
2019-05-06T18:36:52.472Z,9.26
2019-05-06T18:39:22.364Z,9.16
2019-05-06T18:41:53.183Z,9.21
2019-05-06T18:44:22.641Z,9.19
2019-05-06T18:46:53.005Z,9.26
2019-05-06T18:49:22.476Z,9.10
2019-05-06T18:51:52.087Z,9.02
2019-05-06T18:54:22.067Z,9.04
2019-05-06T18:56:52.206Z,9.02
2019-05-06T18:59:23.002Z,9.13
2019-05-06T19:01:51.015Z,8.96
2019-05-06T19:04:36.381Z,8.93
2019-05-06T19:07:12.928Z,8.86
2019-05-06T19:09:36.804Z,8.87
2019-05-06T19:12:05.447Z,8.80
2019-05-06T19:14:33.872Z,8.92
2019-05-06T19:17:02.813Z,8.78
2019-05-06T19:19:34.215Z,8.80
2019-05-06T19:22:02.920Z,8.69
2019-05-06T19:24:33.655Z,8.77
2019-05-06T19:27:02.418Z,8.63
2019-05-06T19:29:32.782Z,8.70
2019-05-06T19:32:03.049Z,8.69
2019-05-06T19:34:34.594Z,8.61
2019-05-06T19:37:02.407Z,8.53
2019-05-06T19:39:32.941Z,8.73
2019-05-06T19:42:02.830Z,8.67
2019-05-06T19:44:31.533Z,8.56
2019-05-06T19:47:02.353Z,8.62
2019-05-06T19:49:30.209Z,8.58
2019-05-06T19:51:58.958Z,8.69
2019-05-06T19:54:27.439Z,8.56
2019-05-06T19:56:55.954Z,8.60
2019-05-06T19:59:24.432Z,8.58
2019-05-06T20:01:53.082Z,8.68
2019-05-06T20:04:22.719Z,8.60
2019-05-06T20:06:55.797Z,8.45
2019-05-06T20:09:34.635Z,8.61
2019-05-06T20:12:04.838Z,8.55
2019-05-06T20:14:33.292Z,8.55
2019-05-06T20:17:03.714Z,8.58
2019-05-06T20:19:33.914Z,8.53
2019-05-06T20:22:02.178Z,8.57
2019-05-06T20:24:33.063Z,8.47
2019-05-06T20:27:02.369Z,8.54
2019-05-06T20:29:32.999Z,8.58
2019-05-06T20:32:01.342Z,8.68
2019-05-06T20:34:31.966Z,8.61
2019-05-06T20:37:01.954Z,8.56
2019-05-06T20:39:32.348Z,8.56
2019-05-06T20:42:02.888Z,8.47
2019-05-06T20:44:32.528Z,8.58
2019-05-06T20:47:03.123Z,8.52
2019-05-06T20:49:33.146Z,8.49
2019-05-06T20:52:01.608Z,8.36
2019-05-06T20:54:32.412Z,8.42
2019-05-06T20:57:02.525Z,8.38
2019-05-06T20:59:32.203Z,8.44
2019-05-06T21:02:03.002Z,8.34
2019-05-06T21:04:32.411Z,8.32
2019-05-06T21:07:02.751Z,8.20
2019-05-06T21:09:32.102Z,8.30
2019-05-06T21:12:00.735Z,8.22
2019-05-06T21:14:29.156Z,8.11
2019-05-06T21:16:57.659Z,8.07
2019-05-06T21:19:26.186Z,8.10
2019-05-06T21:21:54.658Z,7.88
2019-05-06T21:24:23.211Z,7.88
2019-05-06T21:26:53.121Z,7.77
2019-05-06T21:29:24.229Z,7.85
2019-05-06T21:31:53.301Z,7.74
2019-05-06T21:34:22.408Z,7.81
2019-05-06T21:36:53.225Z,7.87
2019-05-06T21:39:22.394Z,7.86
2019-05-06T21:41:52.168Z,7.83
2019-05-06T21:44:22.783Z,7.74
2019-05-06T21:46:51.017Z,7.61
2019-05-06T21:49:19.475Z,7.59
2019-05-06T21:51:47.966Z,7.46
2019-05-06T21:54:16.411Z,7.50
2019-05-06T21:56:44.956Z,7.58
2019-05-06T21:59:13.391Z,7.47
2019-05-06T22:01:43.031Z,7.57
2019-05-06T22:04:12.759Z,7.39
2019-05-06T22:06:42.836Z,7.43
2019-05-06T22:09:12.715Z,7.41
2019-05-06T22:11:42.309Z,7.49
2019-05-06T22:14:12.262Z,7.69
2019-05-06T22:16:41.018Z,7.44
2019-05-06T22:19:11.918Z,7.46
2019-05-06T22:21:42.559Z,7.52
2019-05-06T22:24:12.266Z,7.49
2019-05-06T22:26:42.960Z,7.38
2019-05-06T22:29:12.794Z,7.47
2019-05-06T22:31:42.308Z,7.49
2019-05-06T22:34:10.900Z,7.60
2019-05-06T22:36:39.406Z,7.52
2019-05-06T22:39:08.267Z,7.50
2019-05-06T22:41:36.732Z,7.53
2019-05-06T22:44:13.106Z,7.70
2019-05-06T22:46:35.402Z,7.50
2019-05-06T22:49:03.867Z,7.66
2019-05-06T22:51:32.538Z,7.68
2019-05-06T22:54:02.720Z,7.65
2019-05-06T22:56:32.492Z,7.70
2019-05-06T22:59:03.264Z,7.79
2019-05-06T23:01:49.309Z,7.95
2019-05-06T23:04:19.407Z,7.89
2019-05-06T23:06:47.888Z,7.71
2019-05-06T23:09:16.358Z,7.87
2019-05-06T23:11:44.983Z,7.85
2019-05-06T23:14:27.044Z,7.80
2019-05-06T23:16:43.664Z,7.85
2019-05-06T23:19:12.135Z,7.82
2019-05-06T23:21:42.914Z,7.97
2019-05-06T23:24:12.564Z,7.96
2019-05-06T23:26:41.079Z,7.84
2019-05-06T23:29:09.654Z,7.86
2019-05-06T23:31:38.193Z,7.89
2019-05-06T23:34:06.667Z,7.92
2019-05-06T23:37:02.663Z,8.08
2019-05-06T23:40:12.758Z,7.85
2019-05-06T23:43:18.049Z,7.93
2019-05-06T23:46:23.164Z,7.91
2019-05-06T23:49:28.102Z,7.94
2019-05-06T23:52:33.289Z,7.94
2019-05-06T23:55:37.979Z,7.89
2019-05-06T23:58:05.519Z,7.96
